sensor_id;sensor_type;location;lat;lon;timestamp;P1;durP1;ratioP1;P2;durP2;ratioP2
12385;SDS011;6257;57.634;18.310;2023-05-10T00:01:41;14.27;;;6.70;;
12385;SDS011;6257;57.634;18.310;2023-05-10T00:04:08;15.07;;;6.57;;
12385;SDS011;6257;57.634;18.310;2023-05-10T00:06:35;10.47;;;6.87;;
12385;SDS011;6257;57.634;18.310;2023-05-10T00:09:02;6.80;;;5.80;;
12385;SDS011;6257;57.634;18.310;2023-05-10T00:11:29;18.90;;;6.27;;
12385;SDS011;6257;57.634;18.310;2023-05-10T00:13:57;15.87;;;6.57;;
12385;SDS011;6257;57.634;18.310;2023-05-10T00:16:24;13.10;;;6.67;;
12385;SDS011;6257;57.634;18.310;2023-05-10T00:18:51;15.70;;;6.20;;
12385;SDS011;6257;57.634;18.310;2023-05-10T00:21:18;9.17;;;6.57;;
12385;SDS011;6257;57.634;18.310;2023-05-10T00:23:46;10.17;;;5.87;;
12385;SDS011;6257;57.634;18.310;2023-05-10T00:26:13;12.07;;;6.53;;
12385;SDS011;6257;57.634;18.310;2023-05-10T00:28:40;7.60;;;5.93;;
12385;SDS011;6257;57.634;18.310;2023-05-10T00:31:08;8.53;;;5.93;;
12385;SDS011;6257;57.634;18.310;2023-05-10T00:33:36;11.13;;;6.20;;
12385;SDS011;6257;57.634;18.310;2023-05-10T00:36:03;11.77;;;6.07;;
12385;SDS011;6257;57.634;18.310;2023-05-10T00:38:32;9.13;;;5.77;;
12385;SDS011;6257;57.634;18.310;2023-05-10T00:40:59;10.17;;;6.03;;
12385;SDS011;6257;57.634;18.310;2023-05-10T00:43:27;10.20;;;5.63;;
12385;SDS011;6257;57.634;18.310;2023-05-10T00:45:54;12.23;;;6.10;;
12385;SDS011;6257;57.634;18.310;2023-05-10T00:48:23;11.97;;;6.20;;
12385;SDS011;6257;57.634;18.310;2023-05-10T00:50:50;8.83;;;5.97;;
12385;SDS011;6257;57.634;18.310;2023-05-10T00:53:17;9.17;;;6.10;;
12385;SDS011;6257;57.634;18.310;2023-05-10T00:55:45;9.17;;;6.07;;
12385;SDS011;6257;57.634;18.310;2023-05-10T00:58:12;7.83;;;5.90;;
12385;SDS011;6257;57.634;18.310;2023-05-10T01:00:40;16.93;;;6.27;;
12385;SDS011;6257;57.634;18.310;2023-05-10T01:03:09;10.40;;;6.10;;
12385;SDS011;6257;57.634;18.310;2023-05-10T01:05:38;10.87;;;5.93;;
12385;SDS011;6257;57.634;18.310;2023-05-10T01:08:05;12.60;;;5.90;;
12385;SDS011;6257;57.634;18.310;2023-05-10T01:10:33;7.70;;;5.63;;
12385;SDS011;6257;57.634;18.310;2023-05-10T01:13:01;11.20;;;6.23;;
12385;SDS011;6257;57.634;18.310;2023-05-10T01:15:28;18.73;;;6.40;;
12385;SDS011;6257;57.634;18.310;2023-05-10T01:17:57;16.40;;;6.50;;
12385;SDS011;6257;57.634;18.310;2023-05-10T01:20:24;10.37;;;6.00;;
12385;SDS011;6257;57.634;18.310;2023-05-10T01:23:09;7.97;;;6.10;;
12385;SDS011;6257;57.634;18.310;2023-05-10T01:28:52;9.57;;;6.40;;
12385;SDS011;6257;57.634;18.310;2023-05-10T01:34:34;7.80;;;6.23;;
12385;SDS011;6257;57.634;18.310;2023-05-10T01:37:05;10.47;;;6.43;;
12385;SDS011;6257;57.634;18.310;2023-05-10T01:39:38;8.60;;;6.03;;
12385;SDS011;6257;57.634;18.310;2023-05-10T01:42:11;10.83;;;6.90;;
12385;SDS011;6257;57.634;18.310;2023-05-10T01:44:42;11.03;;;6.47;;
12385;SDS011;6257;57.634;18.310;2023-05-10T01:47:22;8.10;;;6.07;;
12385;SDS011;6257;57.634;18.310;2023-05-10T01:49:55;7.23;;;5.37;;
12385;SDS011;6257;57.634;18.310;2023-05-10T01:52:28;9.30;;;6.00;;
12385;SDS011;6257;57.634;18.310;2023-05-10T01:55:00;7.73;;;5.90;;
12385;SDS011;6257;57.634;18.310;2023-05-10T01:57:31;7.17;;;5.43;;
12385;SDS011;6257;57.634;18.310;2023-05-10T02:00:01;10.30;;;6.60;;
12385;SDS011;6257;57.634;18.310;2023-05-10T02:02:30;18.50;;;6.40;;
12385;SDS011;6257;57.634;18.310;2023-05-10T02:05:03;13.23;;;6.63;;
12385;SDS011;6257;57.634;18.310;2023-05-10T02:07:33;6.73;;;5.50;;
12385;SDS011;6257;57.634;18.310;2023-05-10T02:10:02;11.50;;;5.83;;
12385;SDS011;6257;57.634;18.310;2023-05-10T02:12:31;12.40;;;6.00;;
12385;SDS011;6257;57.634;18.310;2023-05-10T02:15:02;7.93;;;5.47;;
12385;SDS011;6257;57.634;18.310;2023-05-10T02:17:33;9.87;;;6.03;;
12385;SDS011;6257;57.634;18.310;2023-05-10T02:20:01;7.67;;;5.70;;
12385;SDS011;6257;57.634;18.310;2023-05-10T02:22:31;9.13;;;6.03;;
12385;SDS011;6257;57.634;18.310;2023-05-10T02:24:59;10.20;;;5.67;;
12385;SDS011;6257;57.634;18.310;2023-05-10T02:27:27;8.17;;;5.83;;
12385;SDS011;6257;57.634;18.310;2023-05-10T02:29:55;9.87;;;6.07;;
12385;SDS011;6257;57.634;18.310;2023-05-10T02:32:24;12.63;;;6.10;;
12385;SDS011;6257;57.634;18.310;2023-05-10T02:34:55;12.03;;;6.13;;
12385;SDS011;6257;57.634;18.310;2023-05-10T02:37:23;11.13;;;6.03;;
12385;SDS011;6257;57.634;18.310;2023-05-10T02:39:52;11.63;;;6.20;;
12385;SDS011;6257;57.634;18.310;2023-05-10T02:42:23;19.20;;;6.17;;
12385;SDS011;6257;57.634;18.310;2023-05-10T02:44:53;14.60;;;6.43;;
12385;SDS011;6257;57.634;18.310;2023-05-10T02:47:26;10.93;;;5.93;;
12385;SDS011;6257;57.634;18.310;2023-05-10T02:49:54;27.83;;;8.00;;
12385;SDS011;6257;57.634;18.310;2023-05-10T02:52:23;20.83;;;6.63;;
12385;SDS011;6257;57.634;18.310;2023-05-10T02:54:54;16.80;;;6.37;;
12385;SDS011;6257;57.634;18.310;2023-05-10T02:57:25;15.70;;;5.77;;
12385;SDS011;6257;57.634;18.310;2023-05-10T02:59:54;16.07;;;6.30;;
12385;SDS011;6257;57.634;18.310;2023-05-10T03:02:21;21.93;;;7.17;;
12385;SDS011;6257;57.634;18.310;2023-05-10T03:04:48;25.13;;;6.40;;
12385;SDS011;6257;57.634;18.310;2023-05-10T03:07:17;27.40;;;7.60;;
12385;SDS011;6257;57.634;18.310;2023-05-10T03:09:46;21.00;;;6.13;;
12385;SDS011;6257;57.634;18.310;2023-05-10T03:12:15;20.13;;;6.33;;
12385;SDS011;6257;57.634;18.310;2023-05-10T03:14:53;25.87;;;7.47;;
12385;SDS011;6257;57.634;18.310;2023-05-10T03:17:29;18.43;;;6.60;;
12385;SDS011;6257;57.634;18.310;2023-05-10T03:20:03;17.67;;;6.07;;
12385;SDS011;6257;57.634;18.310;2023-05-10T03:22:36;16.13;;;5.87;;
12385;SDS011;6257;57.634;18.310;2023-05-10T03:25:05;8.17;;;5.20;;
12385;SDS011;6257;57.634;18.310;2023-05-10T03:27:34;17.13;;;6.33;;
12385;SDS011;6257;57.634;18.310;2023-05-10T03:30:02;11.17;;;6.10;;
12385;SDS011;6257;57.634;18.310;2023-05-10T03:32:31;12.57;;;5.97;;
12385;SDS011;6257;57.634;18.310;2023-05-10T03:34:59;19.37;;;6.37;;
12385;SDS011;6257;57.634;18.310;2023-05-10T03:37:26;15.60;;;5.83;;
12385;SDS011;6257;57.634;18.310;2023-05-10T03:39:55;14.80;;;6.00;;
12385;SDS011;6257;57.634;18.310;2023-05-10T03:42:22;23.77;;;6.70;;
12385;SDS011;6257;57.634;18.310;2023-05-10T03:44:49;22.77;;;7.20;;
12385;SDS011;6257;57.634;18.310;2023-05-10T03:47:16;17.83;;;6.13;;
12385;SDS011;6257;57.634;18.310;2023-05-10T03:49:43;30.77;;;7.10;;
12385;SDS011;6257;57.634;18.310;2023-05-10T03:52:10;20.87;;;5.90;;
12385;SDS011;6257;57.634;18.310;2023-05-10T03:54:38;17.37;;;5.87;;
12385;SDS011;6257;57.634;18.310;2023-05-10T03:57:06;19.87;;;6.43;;
12385;SDS011;6257;57.634;18.310;2023-05-10T03:59:34;28.50;;;6.73;;
12385;SDS011;6257;57.634;18.310;2023-05-10T04:02:01;20.80;;;7.10;;
12385;SDS011;6257;57.634;18.310;2023-05-10T04:04:28;14.87;;;5.97;;
12385;SDS011;6257;57.634;18.310;2023-05-10T04:06:55;11.70;;;5.90;;
12385;SDS011;6257;57.634;18.310;2023-05-10T04:09:23;21.13;;;6.50;;
12385;SDS011;6257;57.634;18.310;2023-05-10T04:11:50;25.77;;;6.73;;
12385;SDS011;6257;57.634;18.310;2023-05-10T04:14:21;24.93;;;7.07;;
12385;SDS011;6257;57.634;18.310;2023-05-10T04:16:48;13.20;;;5.50;;
12385;SDS011;6257;57.634;18.310;2023-05-10T04:19:15;12.70;;;5.63;;
12385;SDS011;6257;57.634;18.310;2023-05-10T04:21:43;7.60;;;4.97;;
12385;SDS011;6257;57.634;18.310;2023-05-10T04:24:10;7.93;;;5.70;;
12385;SDS011;6257;57.634;18.310;2023-05-10T04:26:37;5.93;;;4.73;;
12385;SDS011;6257;57.634;18.310;2023-05-10T04:29:04;8.00;;;5.10;;
12385;SDS011;6257;57.634;18.310;2023-05-10T04:31:33;14.23;;;5.73;;
12385;SDS011;6257;57.634;18.310;2023-05-10T04:34:01;8.47;;;4.77;;
12385;SDS011;6257;57.634;18.310;2023-05-10T04:36:28;11.43;;;4.87;;
12385;SDS011;6257;57.634;18.310;2023-05-10T04:38:57;7.47;;;4.90;;
12385;SDS011;6257;57.634;18.310;2023-05-10T04:41:24;14.83;;;5.30;;
12385;SDS011;6257;57.634;18.310;2023-05-10T04:43:51;12.47;;;4.77;;
12385;SDS011;6257;57.634;18.310;2023-05-10T04:46:18;10.70;;;5.30;;
12385;SDS011;6257;57.634;18.310;2023-05-10T04:48:47;10.90;;;4.93;;
12385;SDS011;6257;57.634;18.310;2023-05-10T04:51:14;9.50;;;4.30;;
12385;SDS011;6257;57.634;18.310;2023-05-10T04:53:41;8.13;;;4.93;;
12385;SDS011;6257;57.634;18.310;2023-05-10T04:56:08;10.73;;;4.63;;
12385;SDS011;6257;57.634;18.310;2023-05-10T04:58:35;7.10;;;4.17;;
12385;SDS011;6257;57.634;18.310;2023-05-10T05:01:05;9.57;;;4.47;;
12385;SDS011;6257;57.634;18.310;2023-05-10T05:03:33;11.87;;;4.37;;
12385;SDS011;6257;57.634;18.310;2023-05-10T05:06:02;5.00;;;3.87;;
12385;SDS011;6257;57.634;18.310;2023-05-10T05:08:30;5.10;;;4.23;;
12385;SDS011;6257;57.634;18.310;2023-05-10T05:10:57;7.67;;;4.07;;
12385;SDS011;6257;57.634;18.310;2023-05-10T05:13:24;7.47;;;4.03;;
12385;SDS011;6257;57.634;18.310;2023-05-10T05:15:51;6.73;;;4.10;;
12385;SDS011;6257;57.634;18.310;2023-05-10T05:18:19;4.70;;;3.73;;
12385;SDS011;6257;57.634;18.310;2023-05-10T05:20:48;8.23;;;4.20;;
12385;SDS011;6257;57.634;18.310;2023-05-10T05:23:17;8.00;;;3.87;;
12385;SDS011;6257;57.634;18.310;2023-05-10T05:25:45;10.87;;;4.03;;
12385;SDS011;6257;57.634;18.310;2023-05-10T05:28:13;6.17;;;4.20;;
12385;SDS011;6257;57.634;18.310;2023-05-10T05:30:40;8.00;;;4.37;;
12385;SDS011;6257;57.634;18.310;2023-05-10T05:33:08;5.70;;;4.10;;
12385;SDS011;6257;57.634;18.310;2023-05-10T05:35:35;6.13;;;3.70;;
12385;SDS011;6257;57.634;18.310;2023-05-10T05:38:03;6.30;;;4.00;;
12385;SDS011;6257;57.634;18.310;2023-05-10T05:40:32;9.23;;;3.97;;
12385;SDS011;6257;57.634;18.310;2023-05-10T05:42:59;9.93;;;4.07;;
12385;SDS011;6257;57.634;18.310;2023-05-10T05:45:26;12.37;;;3.60;;
12385;SDS011;6257;57.634;18.310;2023-05-10T05:47:53;10.07;;;3.93;;
12385;SDS011;6257;57.634;18.310;2023-05-10T05:50:20;6.57;;;3.50;;
12385;SDS011;6257;57.634;18.310;2023-05-10T05:52:47;6.53;;;3.73;;
12385;SDS011;6257;57.634;18.310;2023-05-10T05:55:14;5.67;;;3.70;;
12385;SDS011;6257;57.634;18.310;2023-05-10T05:57:42;6.57;;;3.10;;
12385;SDS011;6257;57.634;18.310;2023-05-10T06:00:10;6.30;;;3.30;;
12385;SDS011;6257;57.634;18.310;2023-05-10T06:02:38;6.50;;;3.23;;
12385;SDS011;6257;57.634;18.310;2023-05-10T06:05:06;7.77;;;3.20;;
12385;SDS011;6257;57.634;18.310;2023-05-10T06:07:33;7.50;;;3.17;;
12385;SDS011;6257;57.634;18.310;2023-05-10T06:10:00;5.90;;;3.10;;
12385;SDS011;6257;57.634;18.310;2023-05-10T06:12:28;10.63;;;3.80;;
12385;SDS011;6257;57.634;18.310;2023-05-10T06:14:56;6.37;;;3.10;;
12385;SDS011;6257;57.634;18.310;2023-05-10T06:17:23;5.90;;;3.10;;
12385;SDS011;6257;57.634;18.310;2023-05-10T06:19:50;6.27;;;3.33;;
12385;SDS011;6257;57.634;18.310;2023-05-10T06:22:18;6.30;;;3.23;;
12385;SDS011;6257;57.634;18.310;2023-05-10T06:24:45;5.13;;;2.93;;
12385;SDS011;6257;57.634;18.310;2023-05-10T06:27:12;7.13;;;3.17;;
12385;SDS011;6257;57.634;18.310;2023-05-10T06:29:39;5.50;;;2.70;;
12385;SDS011;6257;57.634;18.310;2023-05-10T06:32:07;4.50;;;2.57;;
12385;SDS011;6257;57.634;18.310;2023-05-10T06:34:34;4.93;;;2.87;;
12385;SDS011;6257;57.634;18.310;2023-05-10T06:37:01;6.00;;;2.50;;
12385;SDS011;6257;57.634;18.310;2023-05-10T06:39:28;9.17;;;3.00;;
12385;SDS011;6257;57.634;18.310;2023-05-10T06:41:55;6.97;;;2.67;;
12385;SDS011;6257;57.634;18.310;2023-05-10T06:44:22;12.07;;;3.40;;
12385;SDS011;6257;57.634;18.310;2023-05-10T06:46:49;5.33;;;2.73;;
12385;SDS011;6257;57.634;18.310;2023-05-10T06:49:19;5.43;;;2.73;;
12385;SDS011;6257;57.634;18.310;2023-05-10T06:51:47;6.83;;;2.97;;
12385;SDS011;6257;57.634;18.310;2023-05-10T06:54:14;4.40;;;2.60;;
12385;SDS011;6257;57.634;18.310;2023-05-10T06:56:41;4.20;;;2.50;;
12385;SDS011;6257;57.634;18.310;2023-05-10T06:59:08;7.83;;;2.90;;
12385;SDS011;6257;57.634;18.310;2023-05-10T07:01:35;3.87;;;2.47;;
12385;SDS011;6257;57.634;18.310;2023-05-10T07:04:02;4.97;;;2.67;;
12385;SDS011;6257;57.634;18.310;2023-05-10T07:06:31;4.30;;;2.90;;
12385;SDS011;6257;57.634;18.310;2023-05-10T07:08:58;3.83;;;2.50;;
12385;SDS011;6257;57.634;18.310;2023-05-10T07:11:26;3.57;;;2.40;;
12385;SDS011;6257;57.634;18.310;2023-05-10T07:13:53;3.83;;;2.40;;
12385;SDS011;6257;57.634;18.310;2023-05-10T07:16:20;5.77;;;2.87;;
12385;SDS011;6257;57.634;18.310;2023-05-10T07:18:47;4.90;;;2.23;;
12385;SDS011;6257;57.634;18.310;2023-05-10T07:21:15;4.47;;;2.53;;
12385;SDS011;6257;57.634;18.310;2023-05-10T07:23:43;6.17;;;2.40;;
12385;SDS011;6257;57.634;18.310;2023-05-10T07:26:11;7.00;;;2.40;;
12385;SDS011;6257;57.634;18.310;2023-05-10T07:28:39;5.37;;;2.40;;
12385;SDS011;6257;57.634;18.310;2023-05-10T07:31:06;12.80;;;3.40;;
12385;SDS011;6257;57.634;18.310;2023-05-10T07:33:33;8.30;;;2.60;;
12385;SDS011;6257;57.634;18.310;2023-05-10T07:36:00;5.70;;;2.67;;
12385;SDS011;6257;57.634;18.310;2023-05-10T07:38:27;13.40;;;2.90;;
12385;SDS011;6257;57.634;18.310;2023-05-10T07:40:56;8.93;;;2.93;;
12385;SDS011;6257;57.634;18.310;2023-05-10T07:43:23;5.33;;;2.47;;
12385;SDS011;6257;57.634;18.310;2023-05-10T07:45:50;8.47;;;2.30;;
12385;SDS011;6257;57.634;18.310;2023-05-10T07:48:17;5.67;;;2.43;;
12385;SDS011;6257;57.634;18.310;2023-05-10T07:50:44;4.50;;;2.50;;
12385;SDS011;6257;57.634;18.310;2023-05-10T07:53:11;10.17;;;2.97;;
12385;SDS011;6257;57.634;18.310;2023-05-10T07:55:38;7.73;;;2.80;;
12385;SDS011;6257;57.634;18.310;2023-05-10T07:58:07;3.93;;;2.40;;
12385;SDS011;6257;57.634;18.310;2023-05-10T08:00:34;4.30;;;2.73;;
12385;SDS011;6257;57.634;18.310;2023-05-10T08:03:04;3.07;;;2.30;;
12385;SDS011;6257;57.634;18.310;2023-05-10T08:05:31;4.47;;;2.50;;
12385;SDS011;6257;57.634;18.310;2023-05-10T08:07:58;6.03;;;2.53;;
12385;SDS011;6257;57.634;18.310;2023-05-10T08:10:25;6.57;;;2.20;;
12385;SDS011;6257;57.634;18.310;2023-05-10T08:12:52;10.03;;;2.80;;
12385;SDS011;6257;57.634;18.310;2023-05-10T08:15:21;5.50;;;2.43;;
12385;SDS011;6257;57.634;18.310;2023-05-10T08:17:48;3.47;;;2.43;;
12385;SDS011;6257;57.634;18.310;2023-05-10T08:20:15;16.10;;;3.17;;
12385;SDS011;6257;57.634;18.310;2023-05-10T08:22:44;2.90;;;2.20;;
12385;SDS011;6257;57.634;18.310;2023-05-10T08:25:11;4.80;;;2.37;;
12385;SDS011;6257;57.634;18.310;2023-05-10T08:27:38;23.43;;;4.10;;
12385;SDS011;6257;57.634;18.310;2023-05-10T08:30:06;8.37;;;2.50;;
12385;SDS011;6257;57.634;18.310;2023-05-10T08:32:34;12.07;;;2.87;;
12385;SDS011;6257;57.634;18.310;2023-05-10T08:35:03;5.57;;;2.20;;
12385;SDS011;6257;57.634;18.310;2023-05-10T08:37:30;7.07;;;2.40;;
12385;SDS011;6257;57.634;18.310;2023-05-10T08:39:58;11.23;;;2.53;;
12385;SDS011;6257;57.634;18.310;2023-05-10T08:42:25;6.97;;;2.30;;
12385;SDS011;6257;57.634;18.310;2023-05-10T08:44:56;4.00;;;2.30;;
12385;SDS011;6257;57.634;18.310;2023-05-10T08:47:25;10.53;;;2.50;;
12385;SDS011;6257;57.634;18.310;2023-05-10T08:49:54;13.67;;;2.37;;
12385;SDS011;6257;57.634;18.310;2023-05-10T08:52:24;6.83;;;2.50;;
12385;SDS011;6257;57.634;18.310;2023-05-10T08:54:54;2.90;;;2.00;;
12385;SDS011;6257;57.634;18.310;2023-05-10T08:57:21;8.53;;;2.73;;
12385;SDS011;6257;57.634;18.310;2023-05-10T08:59:48;10.43;;;2.70;;
12385;SDS011;6257;57.634;18.310;2023-05-10T09:02:15;9.10;;;2.60;;
12385;SDS011;6257;57.634;18.310;2023-05-10T09:04:44;7.07;;;2.50;;
12385;SDS011;6257;57.634;18.310;2023-05-10T09:07:13;6.87;;;2.27;;
12385;SDS011;6257;57.634;18.310;2023-05-10T09:09:41;5.80;;;2.30;;
12385;SDS011;6257;57.634;18.310;2023-05-10T09:12:09;5.73;;;2.20;;
12385;SDS011;6257;57.634;18.310;2023-05-10T09:14:37;5.20;;;2.33;;
12385;SDS011;6257;57.634;18.310;2023-05-10T09:17:04;5.20;;;2.47;;
12385;SDS011;6257;57.634;18.310;2023-05-10T09:19:32;6.30;;;1.97;;
12385;SDS011;6257;57.634;18.310;2023-05-10T09:21:59;4.77;;;2.50;;
12385;SDS011;6257;57.634;18.310;2023-05-10T09:24:29;5.43;;;2.60;;
12385;SDS011;6257;57.634;18.310;2023-05-10T09:26:56;6.13;;;2.57;;
12385;SDS011;6257;57.634;18.310;2023-05-10T09:29:24;6.63;;;2.20;;
12385;SDS011;6257;57.634;18.310;2023-05-10T09:31:51;9.00;;;2.40;;
12385;SDS011;6257;57.634;18.310;2023-05-10T09:34:20;7.17;;;2.30;;
12385;SDS011;6257;57.634;18.310;2023-05-10T09:36:54;4.53;;;2.30;;
12385;SDS011;6257;57.634;18.310;2023-05-10T09:39:31;7.67;;;2.80;;
12385;SDS011;6257;57.634;18.310;2023-05-10T09:41:59;6.50;;;2.43;;
12385;SDS011;6257;57.634;18.310;2023-05-10T09:44:29;4.67;;;2.07;;
12385;SDS011;6257;57.634;18.310;2023-05-10T09:46:57;7.37;;;2.30;;
12385;SDS011;6257;57.634;18.310;2023-05-10T09:49:24;8.37;;;2.10;;
12385;SDS011;6257;57.634;18.310;2023-05-10T09:52:01;6.37;;;2.40;;
12385;SDS011;6257;57.634;18.310;2023-05-10T09:54:28;9.37;;;2.50;;
12385;SDS011;6257;57.634;18.310;2023-05-10T09:56:57;7.70;;;2.20;;
12385;SDS011;6257;57.634;18.310;2023-05-10T09:59:26;8.53;;;2.70;;
12385;SDS011;6257;57.634;18.310;2023-05-10T10:01:55;5.90;;;2.33;;
12385;SDS011;6257;57.634;18.310;2023-05-10T10:04:23;5.67;;;2.43;;
12385;SDS011;6257;57.634;18.310;2023-05-10T10:07:00;5.23;;;2.00;;
12385;SDS011;6257;57.634;18.310;2023-05-10T10:09:29;5.67;;;2.30;;
12385;SDS011;6257;57.634;18.310;2023-05-10T10:11:58;3.03;;;2.00;;
12385;SDS011;6257;57.634;18.310;2023-05-10T10:14:26;5.47;;;2.13;;
12385;SDS011;6257;57.634;18.310;2023-05-10T10:16:53;8.47;;;2.40;;
12385;SDS011;6257;57.634;18.310;2023-05-10T10:19:20;6.50;;;2.23;;
12385;SDS011;6257;57.634;18.310;2023-05-10T10:21:49;6.37;;;2.03;;
12385;SDS011;6257;57.634;18.310;2023-05-10T10:24:16;10.53;;;2.53;;
12385;SDS011;6257;57.634;18.310;2023-05-10T10:26:43;6.43;;;2.20;;
12385;SDS011;6257;57.634;18.310;2023-05-10T10:29:17;4.90;;;2.07;;
12385;SDS011;6257;57.634;18.310;2023-05-10T10:31:51;41.77;;;5.40;;
12385;SDS011;6257;57.634;18.310;2023-05-10T10:34:25;5.00;;;2.20;;
12385;SDS011;6257;57.634;18.310;2023-05-10T10:36:54;6.43;;;2.13;;
12385;SDS011;6257;57.634;18.310;2023-05-10T10:39:23;3.80;;;2.00;;
12385;SDS011;6257;57.634;18.310;2023-05-10T10:41:51;5.00;;;2.37;;
12385;SDS011;6257;57.634;18.310;2023-05-10T10:44:24;7.40;;;2.17;;
12385;SDS011;6257;57.634;18.310;2023-05-10T10:47:00;2.97;;;2.03;;
12385;SDS011;6257;57.634;18.310;2023-05-10T10:49:30;5.20;;;2.20;;
12385;SDS011;6257;57.634;18.310;2023-05-10T10:52:14;6.40;;;2.60;;
12385;SDS011;6257;57.634;18.310;2023-05-10T10:54:50;6.43;;;2.43;;
12385;SDS011;6257;57.634;18.310;2023-05-10T10:57:18;2.97;;;2.00;;
12385;SDS011;6257;57.634;18.310;2023-05-10T10:59:49;3.60;;;1.97;;
12385;SDS011;6257;57.634;18.310;2023-05-10T11:02:37;5.73;;;2.23;;
12385;SDS011;6257;57.634;18.310;2023-05-10T11:05:33;8.77;;;2.67;;
12385;SDS011;6257;57.634;18.310;2023-05-10T11:08:10;7.13;;;2.40;;
12385;SDS011;6257;57.634;18.310;2023-05-10T11:10:53;5.97;;;2.03;;
12385;SDS011;6257;57.634;18.310;2023-05-10T11:13:33;4.67;;;2.47;;
12385;SDS011;6257;57.634;18.310;2023-05-10T11:16:12;8.77;;;2.40;;
12385;SDS011;6257;57.634;18.310;2023-05-10T11:18:41;4.30;;;2.10;;
12385;SDS011;6257;57.634;18.310;2023-05-10T11:21:26;4.90;;;2.10;;
12385;SDS011;6257;57.634;18.310;2023-05-10T11:23:54;2.93;;;2.30;;
12385;SDS011;6257;57.634;18.310;2023-05-10T11:26:23;6.30;;;2.40;;
12385;SDS011;6257;57.634;18.310;2023-05-10T11:28:51;3.17;;;2.10;;
12385;SDS011;6257;57.634;18.310;2023-05-10T11:31:23;7.97;;;2.67;;
12385;SDS011;6257;57.634;18.310;2023-05-10T11:33:52;5.43;;;2.60;;
12385;SDS011;6257;57.634;18.310;2023-05-10T11:36:20;4.77;;;1.90;;
12385;SDS011;6257;57.634;18.310;2023-05-10T11:38:50;10.43;;;2.17;;
12385;SDS011;6257;57.634;18.310;2023-05-10T11:41:18;5.40;;;2.13;;
12385;SDS011;6257;57.634;18.310;2023-05-10T11:43:47;7.57;;;2.10;;
12385;SDS011;6257;57.634;18.310;2023-05-10T11:46:17;7.83;;;2.20;;
12385;SDS011;6257;57.634;18.310;2023-05-10T11:48:48;6.20;;;2.03;;
12385;SDS011;6257;57.634;18.310;2023-05-10T11:51:19;17.83;;;2.80;;
12385;SDS011;6257;57.634;18.310;2023-05-10T11:53:47;5.67;;;2.00;;
12385;SDS011;6257;57.634;18.310;2023-05-10T11:56:15;4.73;;;2.07;;
12385;SDS011;6257;57.634;18.310;2023-05-10T11:58:42;20.73;;;3.03;;
12385;SDS011;6257;57.634;18.310;2023-05-10T12:01:10;10.70;;;2.30;;
12385;SDS011;6257;57.634;18.310;2023-05-10T12:03:37;4.40;;;1.80;;
12385;SDS011;6257;57.634;18.310;2023-05-10T12:06:07;9.47;;;2.97;;
12385;SDS011;6257;57.634;18.310;2023-05-10T12:08:34;4.93;;;2.47;;
12385;SDS011;6257;57.634;18.310;2023-05-10T12:11:05;7.70;;;2.50;;
12385;SDS011;6257;57.634;18.310;2023-05-10T12:13:37;4.37;;;2.00;;
12385;SDS011;6257;57.634;18.310;2023-05-10T12:16:15;4.97;;;2.27;;
12385;SDS011;6257;57.634;18.310;2023-05-10T12:18:43;4.27;;;2.10;;
12385;SDS011;6257;57.634;18.310;2023-05-10T12:21:12;3.30;;;2.00;;
12385;SDS011;6257;57.634;18.310;2023-05-10T12:23:40;7.83;;;2.20;;
12385;SDS011;6257;57.634;18.310;2023-05-10T12:26:08;4.67;;;2.00;;
12385;SDS011;6257;57.634;18.310;2023-05-10T12:28:36;3.10;;;1.93;;
12385;SDS011;6257;57.634;18.310;2023-05-10T12:31:05;11.37;;;2.97;;
12385;SDS011;6257;57.634;18.310;2023-05-10T12:33:35;7.00;;;2.30;;
12385;SDS011;6257;57.634;18.310;2023-05-10T12:36:05;12.50;;;2.53;;
12385;SDS011;6257;57.634;18.310;2023-05-10T12:38:34;10.90;;;2.40;;
12385;SDS011;6257;57.634;18.310;2023-05-10T12:41:03;8.37;;;2.20;;
12385;SDS011;6257;57.634;18.310;2023-05-10T12:43:32;4.33;;;2.50;;
12385;SDS011;6257;57.634;18.310;2023-05-10T12:46:03;4.60;;;2.10;;
12385;SDS011;6257;57.634;18.310;2023-05-10T12:48:31;3.93;;;2.03;;
12385;SDS011;6257;57.634;18.310;2023-05-10T12:50:59;6.83;;;2.33;;
12385;SDS011;6257;57.634;18.310;2023-05-10T12:53:26;7.90;;;2.23;;
12385;SDS011;6257;57.634;18.310;2023-05-10T12:55:55;23.33;;;3.73;;
12385;SDS011;6257;57.634;18.310;2023-05-10T12:58:22;4.97;;;2.00;;
12385;SDS011;6257;57.634;18.310;2023-05-10T13:00:49;5.07;;;2.10;;
12385;SDS011;6257;57.634;18.310;2023-05-10T13:03:17;4.90;;;2.27;;
12385;SDS011;6257;57.634;18.310;2023-05-10T13:05:45;6.87;;;1.93;;
12385;SDS011;6257;57.634;18.310;2023-05-10T13:08:12;5.70;;;2.10;;
12385;SDS011;6257;57.634;18.310;2023-05-10T13:10:39;4.27;;;1.90;;
12385;SDS011;6257;57.634;18.310;2023-05-10T13:13:08;3.00;;;2.10;;
12385;SDS011;6257;57.634;18.310;2023-05-10T13:15:35;8.57;;;2.30;;
12385;SDS011;6257;57.634;18.310;2023-05-10T13:18:03;5.60;;;2.37;;
12385;SDS011;6257;57.634;18.310;2023-05-10T13:20:30;4.17;;;2.10;;
12385;SDS011;6257;57.634;18.310;2023-05-10T13:22:57;2.40;;;1.80;;
12385;SDS011;6257;57.634;18.310;2023-05-10T13:25:24;4.07;;;2.40;;
12385;SDS011;6257;57.634;18.310;2023-05-10T13:27:51;7.03;;;2.30;;
12385;SDS011;6257;57.634;18.310;2023-05-10T13:30:20;3.80;;;1.80;;
12385;SDS011;6257;57.634;18.310;2023-05-10T13:32:47;3.47;;;1.77;;
12385;SDS011;6257;57.634;18.310;2023-05-10T13:35:15;2.97;;;2.07;;
12385;SDS011;6257;57.634;18.310;2023-05-10T13:37:42;7.00;;;2.00;;
12385;SDS011;6257;57.634;18.310;2023-05-10T13:40:09;4.40;;;2.00;;
12385;SDS011;6257;57.634;18.310;2023-05-10T13:42:37;4.93;;;2.27;;
12385;SDS011;6257;57.634;18.310;2023-05-10T13:45:05;2.67;;;2.10;;
12385;SDS011;6257;57.634;18.310;2023-05-10T13:47:34;7.33;;;2.10;;
12385;SDS011;6257;57.634;18.310;2023-05-10T13:50:01;3.23;;;1.80;;
12385;SDS011;6257;57.634;18.310;2023-05-10T13:52:28;4.03;;;2.03;;
12385;SDS011;6257;57.634;18.310;2023-05-10T13:54:55;5.70;;;2.20;;
12385;SDS011;6257;57.634;18.310;2023-05-10T13:57:23;4.03;;;2.10;;
12385;SDS011;6257;57.634;18.310;2023-05-10T13:59:50;7.50;;;2.40;;
12385;SDS011;6257;57.634;18.310;2023-05-10T14:02:17;3.83;;;1.73;;
12385;SDS011;6257;57.634;18.310;2023-05-10T14:04:46;4.10;;;1.93;;
12385;SDS011;6257;57.634;18.310;2023-05-10T14:07:14;6.13;;;1.83;;
12385;SDS011;6257;57.634;18.310;2023-05-10T14:09:42;3.20;;;2.10;;
12385;SDS011;6257;57.634;18.310;2023-05-10T14:12:09;4.50;;;2.00;;
12385;SDS011;6257;57.634;18.310;2023-05-10T14:14:36;5.87;;;1.90;;
12385;SDS011;6257;57.634;18.310;2023-05-10T14:17:04;3.00;;;1.97;;
12385;SDS011;6257;57.634;18.310;2023-05-10T14:19:31;4.00;;;1.90;;
12385;SDS011;6257;57.634;18.310;2023-05-10T14:22:00;11.57;;;2.50;;
12385;SDS011;6257;57.634;18.310;2023-05-10T14:24:30;3.53;;;2.00;;
12385;SDS011;6257;57.634;18.310;2023-05-10T14:28:24;5.80;;;2.10;;
12385;SDS011;6257;57.634;18.310;2023-05-10T14:30:07;2.80;;;1.63;;
12385;SDS011;6257;57.634;18.310;2023-05-10T14:36:02;2.50;;;1.90;;
12385;SDS011;6257;57.634;18.310;2023-05-10T14:38:17;6.73;;;2.27;;
12385;SDS011;6257;57.634;18.310;2023-05-10T14:40:44;2.83;;;1.87;;
12385;SDS011;6257;57.634;18.310;2023-05-10T14:44:30;4.00;;;1.80;;
12385;SDS011;6257;57.634;18.310;2023-05-10T14:46:03;2.90;;;1.80;;
12385;SDS011;6257;57.634;18.310;2023-05-10T14:58:28;3.17;;;1.70;;
12385;SDS011;6257;57.634;18.310;2023-05-10T15:00:58;4.57;;;2.10;;
12385;SDS011;6257;57.634;18.310;2023-05-10T15:03:42;5.73;;;2.27;;
12385;SDS011;6257;57.634;18.310;2023-05-10T15:06:10;3.70;;;2.17;;
12385;SDS011;6257;57.634;18.310;2023-05-10T15:08:37;5.67;;;2.20;;
12385;SDS011;6257;57.634;18.310;2023-05-10T15:11:06;2.07;;;1.87;;
12385;SDS011;6257;57.634;18.310;2023-05-10T15:13:33;5.63;;;2.20;;